KTVLKSTS

Guest
Details From KTVL - South Lake Tahoe
To KSTS - Charles M. Schulz - Sonoma Co
Flight Number -
Tags generated
Created
Modified
Stats Distance 134 nm / 248 km
Max Altitude 12,100 ft / 3,688 m
Waypoints 3
Social Downloads 2
Likes 0
Share VATSIM

Download

Looking for another format? Having issues loading an existing format? Contact us
Advertisement - Login to hide

Notes

Basic altitude profile: - Ascent Rate: 2500ft/min - Ascent Speed: 250kts - Cruise Altitude: 21000ft - Cruise Speed: 420kts - Descent Rate: 1500ft/min - Descent Speed: 250kts Options: - Use NATs: yes - Use PACOTS: yes - Use low airways: yes - Use high airways: yes

Route

KTVL CAPTO KSTS

ID Type Via Altitude Latitude Longitude Leg Dist Tot Dist Heading (true) Name
O KTVL APT - 0 ft / 0 m 38.89388˚ -119.99533˚ - 0 nm - South Lake Tahoe
CAPTO FIX - 12,100 ft / 3,688 m 38.67221˚ -121.62432˚ 77 nm 77 nm 261° / 260° -
O KSTS APT - 0 ft / 0 m 38.50898˚ -122.81292˚ 56 nm 134 nm 260° / 260° Charles M. Schulz - Sonoma Co

Altitude Profile

Advertisement - Login to hide

KTVL

Details ICAO KTVL (TVL)
Name South Lake Tahoe
Region United States
Timezone America/Los_Angeles (UTC-7.0)
Stats Elevation 6,264 ft / 1,909 m (AMSL)
Location 38.893882° -119.995335°
Runways 1
Magnetic Variation 13.276° E

METAR

KTVL 271453Z AUTO 15003KT 10SM CLR 07/06 A3012 RMK AO2 SLP171 T00720056 50002

Decode

TAF

TAF KTVL 271120Z 2712/2812 VRB02KT P6SM SCT040 SCT180 FM271800 04007KT P6SM SCT050 FM280300 VRB03KT P6SM SCT180

Decode

Departure Runways

ID Width Length Bearing (true) Bearing (mag) Surface Threshold Offset Overrun Length
18 150 ft / 46 m 8,556 ft / 2,608 m 192.88° 179.60° Asphalt 0 ft / 0 m 0 ft / 0 m
36 150 ft / 46 m 8,556 ft / 2,608 m 12.88° 359.60° Asphalt 2,037 ft / 621 m 0 ft / 0 m

KSTS

Details ICAO KSTS (STS)
Name Charles M. Schulz - Sonoma Co
Region United States
Timezone America/Los_Angeles (UTC-7.0)
Stats Elevation 128 ft / 39 m (AMSL)
Location 38.508979° -122.812922°
Runways 2
Magnetic Variation 13.680° E

METAR

KSTS 271453Z 00000KT 10SM CLR 13/11 A2999 RMK AO2 SLP148 T01280106 50004

Decode

TAF

KSTS 271358Z 2714/2812 VRB03KT P6SM FEW004 FM271800 19005KT P6SM SKC FM272100 17010KT P6SM SKC FM280400 15002KT P6SM SKC

Decode

Destination Runways

ID Width Length Bearing (true) Bearing (mag) Surface Threshold Offset Overrun Length
01 98 ft / 30 m 5,008 ft / 1,527 m 29.05° 15.37° Asphalt 0 ft / 0 m 0 ft / 0 m
14 151 ft / 46 m 5,122 ft / 1,561 m 157.28° 143.60° Asphalt 0 ft / 0 m 200 ft / 61 m
19 98 ft / 30 m 5,008 ft / 1,527 m 209.05° 195.37° Asphalt 0 ft / 0 m 0 ft / 0 m
32 151 ft / 46 m 5,122 ft / 1,561 m 337.28° 323.60° Asphalt 0 ft / 0 m 200 ft / 61 m

Approach Navaids

Runway Type Ident Frequency Range Bearing (true) Bearing (mag) Slope Elevation
32 Localiser ISTS 109.30 MHz 18 nm / 33 km 337.27° 323.59° - 93 ft / 28 m (AMSL)
32 Glidescope ISTS 109.30 MHz 10 nm / 19 km 337.28° 323.60° 3.00° 118 ft / 36 m (AMSL)

Popular Alternatives